sensor_id;sensor_type;location;lat;lon;timestamp;pressure;altitude;pressure_sealevel;temperature
11424;BMP180;5768;51.476;7.210;2023-04-01T00:00:00;98017.00;;;12.80
11424;BMP180;5768;51.476;7.210;2023-04-01T00:05:03;98023.00;;;12.70
11424;BMP180;5768;51.476;7.210;2023-04-01T00:10:09;98017.00;;;12.60
11424;BMP180;5768;51.476;7.210;2023-04-01T00:15:13;98012.00;;;12.60
11424;BMP180;5768;51.476;7.210;2023-04-01T00:20:16;98010.00;;;12.60
11424;BMP180;5768;51.476;7.210;2023-04-01T00:25:19;98010.00;;;12.50
11424;BMP180;5768;51.476;7.210;2023-04-01T00:30:23;98003.00;;;12.50
11424;BMP180;5768;51.476;7.210;2023-04-01T00:35:25;97998.00;;;12.50
11424;BMP180;5768;51.476;7.210;2023-04-01T00:40:30;98000.00;;;12.50
11424;BMP180;5768;51.476;7.210;2023-04-01T00:45:38;98001.00;;;12.50
11424;BMP180;5768;51.476;7.210;2023-04-01T00:50:44;97998.00;;;12.50
11424;BMP180;5768;51.476;7.210;2023-04-01T00:55:54;97989.00;;;12.50
11424;BMP180;5768;51.476;7.210;2023-04-01T01:01:01;97997.00;;;12.60
11424;BMP180;5768;51.476;7.210;2023-04-01T01:06:19;97995.00;;;12.70
11424;BMP180;5768;51.476;7.210;2023-04-01T01:11:35;97999.00;;;12.70
11424;BMP180;5768;51.476;7.210;2023-04-01T01:16:44;97994.00;;;12.60
11424;BMP180;5768;51.476;7.210;2023-04-01T01:22:07;98003.00;;;12.60
11424;BMP180;5768;51.476;7.210;2023-04-01T01:27:17;97986.00;;;12.50
11424;BMP180;5768;51.476;7.210;2023-04-01T01:38:00;97983.00;;;12.60
11424;BMP180;5768;51.476;7.210;2023-04-01T01:43:09;97987.00;;;12.60
11424;BMP180;5768;51.476;7.210;2023-04-01T01:48:15;97986.00;;;12.60
11424;BMP180;5768;51.476;7.210;2023-04-01T01:53:20;97983.00;;;12.60
11424;BMP180;5768;51.476;7.210;2023-04-01T01:58:27;97957.00;;;12.60
11424;BMP180;5768;51.476;7.210;2023-04-01T02:03:34;97983.00;;;12.70
11424;BMP180;5768;51.476;7.210;2023-04-01T02:08:43;97983.00;;;12.70
11424;BMP180;5768;51.476;7.210;2023-04-01T02:13:52;97973.00;;;12.70
11424;BMP180;5768;51.476;7.210;2023-04-01T02:18:57;97974.00;;;12.80
11424;BMP180;5768;51.476;7.210;2023-04-01T02:24:06;97974.00;;;12.70
11424;BMP180;5768;51.476;7.210;2023-04-01T02:29:12;97993.00;;;12.70
11424;BMP180;5768;51.476;7.210;2023-04-01T02:34:14;97982.00;;;12.70
11424;BMP180;5768;51.476;7.210;2023-04-01T02:39:18;97980.00;;;12.70
11424;BMP180;5768;51.476;7.210;2023-04-01T02:44:21;97969.00;;;12.60
11424;BMP180;5768;51.476;7.210;2023-04-01T02:49:23;97977.00;;;12.50
11424;BMP180;5768;51.476;7.210;2023-04-01T02:54:27;97984.00;;;12.40
11424;BMP180;5768;51.476;7.210;2023-04-01T02:59:29;97982.00;;;12.40
11424;BMP180;5768;51.476;7.210;2023-04-01T03:04:31;97977.00;;;12.30
11424;BMP180;5768;51.476;7.210;2023-04-01T03:09:36;97978.00;;;12.20
11424;BMP180;5768;51.476;7.210;2023-04-01T03:14:38;98001.00;;;12.20
11424;BMP180;5768;51.476;7.210;2023-04-01T03:19:41;98009.00;;;12.20
11424;BMP180;5768;51.476;7.210;2023-04-01T03:24:44;98001.00;;;12.20
11424;BMP180;5768;51.476;7.210;2023-04-01T03:29:46;98006.00;;;12.30
11424;BMP180;5768;51.476;7.210;2023-04-01T03:34:48;97994.00;;;12.30
11424;BMP180;5768;51.476;7.210;2023-04-01T03:39:53;97998.00;;;12.30
11424;BMP180;5768;51.476;7.210;2023-04-01T03:44:55;98004.00;;;12.30
11424;BMP180;5768;51.476;7.210;2023-04-01T03:49:57;98006.00;;;12.30
11424;BMP180;5768;51.476;7.210;2023-04-01T03:55:04;98003.00;;;12.20
11424;BMP180;5768;51.476;7.210;2023-04-01T04:00:08;98022.00;;;12.20
11424;BMP180;5768;51.476;7.210;2023-04-01T04:05:11;98011.00;;;12.20
11424;BMP180;5768;51.476;7.210;2023-04-01T04:10:15;98014.00;;;12.20
11424;BMP180;5768;51.476;7.210;2023-04-01T04:15:19;98022.00;;;12.30
11424;BMP180;5768;51.476;7.210;2023-04-01T04:20:23;98023.00;;;12.30
11424;BMP180;5768;51.476;7.210;2023-04-01T04:25:27;98025.00;;;12.30
11424;BMP180;5768;51.476;7.210;2023-04-01T04:30:31;98026.00;;;12.30
11424;BMP180;5768;51.476;7.210;2023-04-01T04:35:36;98024.00;;;12.40
11424;BMP180;5768;51.476;7.210;2023-04-01T04:40:43;98033.00;;;12.40
11424;BMP180;5768;51.476;7.210;2023-04-01T04:45:48;98024.00;;;12.50
11424;BMP180;5768;51.476;7.210;2023-04-01T04:50:51;98029.00;;;12.50
11424;BMP180;5768;51.476;7.210;2023-04-01T04:55:55;98035.00;;;12.50
11424;BMP180;5768;51.476;7.210;2023-04-01T05:00:58;98043.00;;;12.50
11424;BMP180;5768;51.476;7.210;2023-04-01T05:06:04;98050.00;;;12.60
11424;BMP180;5768;51.476;7.210;2023-04-01T05:11:13;98048.00;;;12.60
11424;BMP180;5768;51.476;7.210;2023-04-01T05:16:19;98053.00;;;12.70
11424;BMP180;5768;51.476;7.210;2023-04-01T05:21:22;98056.00;;;12.80
11424;BMP180;5768;51.476;7.210;2023-04-01T05:26:26;98057.00;;;12.80
11424;BMP180;5768;51.476;7.210;2023-04-01T05:31:30;98059.00;;;12.80
11424;BMP180;5768;51.476;7.210;2023-04-01T05:36:32;98058.00;;;12.80
11424;BMP180;5768;51.476;7.210;2023-04-01T05:41:38;98067.00;;;12.70
11424;BMP180;5768;51.476;7.210;2023-04-01T05:46:43;98062.00;;;12.80
11424;BMP180;5768;51.476;7.210;2023-04-01T05:51:47;98063.00;;;12.70
11424;BMP180;5768;51.476;7.210;2023-04-01T05:56:52;98075.00;;;12.80
11424;BMP180;5768;51.476;7.210;2023-04-01T06:01:57;98070.00;;;12.90
11424;BMP180;5768;51.476;7.210;2023-04-01T06:07:08;98073.00;;;13.00
11424;BMP180;5768;51.476;7.210;2023-04-01T06:12:41;98091.00;;;13.00
11424;BMP180;5768;51.476;7.210;2023-04-01T06:23:38;98089.00;;;13.00
11424;BMP180;5768;51.476;7.210;2023-04-01T06:29:26;98097.00;;;13.00
11424;BMP180;5768;51.476;7.210;2023-04-01T06:35:02;98095.00;;;12.90
11424;BMP180;5768;51.476;7.210;2023-04-01T06:40:45;98097.00;;;12.90
11424;BMP180;5768;51.476;7.210;2023-04-01T06:46:02;98094.00;;;12.90
11424;BMP180;5768;51.476;7.210;2023-04-01T06:51:24;98106.00;;;12.90
11424;BMP180;5768;51.476;7.210;2023-04-01T06:56:32;98110.00;;;12.80
11424;BMP180;5768;51.476;7.210;2023-04-01T07:01:42;98111.00;;;12.90
11424;BMP180;5768;51.476;7.210;2023-04-01T07:06:54;98121.00;;;12.90
11424;BMP180;5768;51.476;7.210;2023-04-01T07:12:10;98108.00;;;13.00
11424;BMP180;5768;51.476;7.210;2023-04-01T07:17:22;98120.00;;;12.90
11424;BMP180;5768;51.476;7.210;2023-04-01T07:22:33;98120.00;;;12.90
11424;BMP180;5768;51.476;7.210;2023-04-01T07:27:38;98135.00;;;12.90
11424;BMP180;5768;51.476;7.210;2023-04-01T07:32:46;98130.00;;;12.90
11424;BMP180;5768;51.476;7.210;2023-04-01T07:38:07;98140.00;;;13.00
11424;BMP180;5768;51.476;7.210;2023-04-01T07:43:48;98144.00;;;13.00
11424;BMP180;5768;51.476;7.210;2023-04-01T07:49:03;98144.00;;;13.00
11424;BMP180;5768;51.476;7.210;2023-04-01T07:54:14;98158.00;;;13.10
11424;BMP180;5768;51.476;7.210;2023-04-01T07:59:24;98155.00;;;13.10
11424;BMP180;5768;51.476;7.210;2023-04-01T08:04:50;98155.00;;;13.20
11424;BMP180;5768;51.476;7.210;2023-04-01T08:10:08;98179.00;;;13.20
11424;BMP180;5768;51.476;7.210;2023-04-01T08:15:21;98164.00;;;13.00
11424;BMP180;5768;51.476;7.210;2023-04-01T08:20:39;98192.00;;;13.10
11424;BMP180;5768;51.476;7.210;2023-04-01T08:25:54;98182.00;;;12.90
11424;BMP180;5768;51.476;7.210;2023-04-01T08:31:05;98199.00;;;12.80
11424;BMP180;5768;51.476;7.210;2023-04-01T08:36:21;98197.00;;;12.60
11424;BMP180;5768;51.476;7.210;2023-04-01T08:41:57;98200.00;;;12.70
11424;BMP180;5768;51.476;7.210;2023-04-01T08:52:57;98205.00;;;12.80
11424;BMP180;5768;51.476;7.210;2023-04-01T09:04:18;98224.00;;;12.80
11424;BMP180;5768;51.476;7.210;2023-04-01T09:10:00;98228.00;;;12.80
11424;BMP180;5768;51.476;7.210;2023-04-01T09:21:33;98234.00;;;12.80
11424;BMP180;5768;51.476;7.210;2023-04-01T09:27:05;98244.00;;;12.80
11424;BMP180;5768;51.476;7.210;2023-04-01T09:32:52;98258.00;;;12.90
11424;BMP180;5768;51.476;7.210;2023-04-01T09:38:20;98270.00;;;12.90
11424;BMP180;5768;51.476;7.210;2023-04-01T09:43:28;98268.00;;;12.90
11424;BMP180;5768;51.476;7.210;2023-04-01T09:48:48;98279.00;;;12.90
11424;BMP180;5768;51.476;7.210;2023-04-01T09:54:10;98274.00;;;12.90
11424;BMP180;5768;51.476;7.210;2023-04-01T09:59:42;98285.00;;;13.30
11424;BMP180;5768;51.476;7.210;2023-04-01T10:05:22;98284.00;;;13.30
11424;BMP180;5768;51.476;7.210;2023-04-01T10:10:59;98301.00;;;13.30
11424;BMP180;5768;51.476;7.210;2023-04-01T10:16:26;98295.00;;;13.30
11424;BMP180;5768;51.476;7.210;2023-04-01T10:22:20;98306.00;;;13.40
11424;BMP180;5768;51.476;7.210;2023-04-01T10:28:06;98313.00;;;13.50
11424;BMP180;5768;51.476;7.210;2023-04-01T10:51:23;98313.00;;;13.70
11424;BMP180;5768;51.476;7.210;2023-04-01T10:56:39;98322.00;;;13.80
11424;BMP180;5768;51.476;7.210;2023-04-01T11:14:09;98340.00;;;13.80
11424;BMP180;5768;51.476;7.210;2023-04-01T11:19:42;98343.00;;;13.60
11424;BMP180;5768;51.476;7.210;2023-04-01T11:36:28;98366.00;;;13.40
11424;BMP180;5768;51.476;7.210;2023-04-01T11:41:48;98374.00;;;13.70
11424;BMP180;5768;51.476;7.210;2023-04-01T11:47:15;98372.00;;;13.80
11424;BMP180;5768;51.476;7.210;2023-04-01T11:52:39;98380.00;;;14.00
11424;BMP180;5768;51.476;7.210;2023-04-01T12:09:35;98399.00;;;13.80
11424;BMP180;5768;51.476;7.210;2023-04-01T12:14:50;98401.00;;;13.70
11424;BMP180;5768;51.476;7.210;2023-04-01T12:20:24;98409.00;;;13.70
11424;BMP180;5768;51.476;7.210;2023-04-01T12:26:00;98417.00;;;13.60
11424;BMP180;5768;51.476;7.210;2023-04-01T12:31:23;98424.00;;;13.50
11424;BMP180;5768;51.476;7.210;2023-04-01T12:36:46;98432.00;;;13.50
11424;BMP180;5768;51.476;7.210;2023-04-01T12:41:59;98433.00;;;13.90
11424;BMP180;5768;51.476;7.210;2023-04-01T12:47:49;98430.00;;;14.10
11424;BMP180;5768;51.476;7.210;2023-04-01T12:53:07;98446.00;;;14.10
11424;BMP180;5768;51.476;7.210;2023-04-01T13:04:51;98461.00;;;14.10
11424;BMP180;5768;51.476;7.210;2023-04-01T13:10:12;98470.00;;;14.10
11424;BMP180;5768;51.476;7.210;2023-04-01T13:15:26;98472.00;;;14.10
11424;BMP180;5768;51.476;7.210;2023-04-01T13:20:45;98489.00;;;14.10
11424;BMP180;5768;51.476;7.210;2023-04-01T13:26:04;98486.00;;;14.10
11424;BMP180;5768;51.476;7.210;2023-04-01T13:31:25;98490.00;;;14.10
11424;BMP180;5768;51.476;7.210;2023-04-01T13:36:40;98500.00;;;14.10
11424;BMP180;5768;51.476;7.210;2023-04-01T13:42:19;98504.00;;;14.00
11424;BMP180;5768;51.476;7.210;2023-04-01T13:47:46;98515.00;;;14.10
11424;BMP180;5768;51.476;7.210;2023-04-01T13:53:21;98510.00;;;14.10
11424;BMP180;5768;51.476;7.210;2023-04-01T13:58:52;98521.00;;;14.30
11424;BMP180;5768;51.476;7.210;2023-04-01T14:09:45;98536.00;;;14.10
11424;BMP180;5768;51.476;7.210;2023-04-01T14:15:14;98537.00;;;13.90
11424;BMP180;5768;51.476;7.210;2023-04-01T14:20:38;98537.00;;;13.80
11424;BMP180;5768;51.476;7.210;2023-04-01T14:26:16;98554.00;;;13.90
11424;BMP180;5768;51.476;7.210;2023-04-01T14:31:34;98543.00;;;13.90
11424;BMP180;5768;51.476;7.210;2023-04-01T14:36:58;98557.00;;;13.90
11424;BMP180;5768;51.476;7.210;2023-04-01T14:42:31;98572.00;;;13.90
11424;BMP180;5768;51.476;7.210;2023-04-01T14:47:50;98567.00;;;13.90
11424;BMP180;5768;51.476;7.210;2023-04-01T14:53:11;98579.00;;;14.00
11424;BMP180;5768;51.476;7.210;2023-04-01T14:58:18;98577.00;;;14.10
11424;BMP180;5768;51.476;7.210;2023-04-01T15:03:30;98587.00;;;14.20
11424;BMP180;5768;51.476;7.210;2023-04-01T15:08:44;98584.00;;;14.20
11424;BMP180;5768;51.476;7.210;2023-04-01T15:14:16;98594.00;;;14.20
11424;BMP180;5768;51.476;7.210;2023-04-01T15:19:29;98599.00;;;14.10
11424;BMP180;5768;51.476;7.210;2023-04-01T15:24:42;98605.00;;;13.90
11424;BMP180;5768;51.476;7.210;2023-04-01T15:30:02;98618.00;;;13.90
11424;BMP180;5768;51.476;7.210;2023-04-01T15:35:24;98623.00;;;14.10
11424;BMP180;5768;51.476;7.210;2023-04-01T15:40:36;98623.00;;;14.30
11424;BMP180;5768;51.476;7.210;2023-04-01T15:45:49;98637.00;;;14.30
11424;BMP180;5768;51.476;7.210;2023-04-01T15:56:36;98637.00;;;14.40
11424;BMP180;5768;51.476;7.210;2023-04-01T16:01:55;98647.00;;;14.40
11424;BMP180;5768;51.476;7.210;2023-04-01T16:07:19;98657.00;;;14.40
11424;BMP180;5768;51.476;7.210;2023-04-01T16:12:40;98664.00;;;14.30
11424;BMP180;5768;51.476;7.210;2023-04-01T16:18:09;98674.00;;;14.20
11424;BMP180;5768;51.476;7.210;2023-04-01T16:23:20;98663.00;;;14.10
11424;BMP180;5768;51.476;7.210;2023-04-01T16:28:30;98672.00;;;14.00
11424;BMP180;5768;51.476;7.210;2023-04-01T16:33:48;98676.00;;;14.10
11424;BMP180;5768;51.476;7.210;2023-04-01T16:39:14;98685.00;;;14.10
11424;BMP180;5768;51.476;7.210;2023-04-01T16:44:22;98688.00;;;14.00
11424;BMP180;5768;51.476;7.210;2023-04-01T16:49:32;98696.00;;;13.90
11424;BMP180;5768;51.476;7.210;2023-04-01T16:54:39;98710.00;;;13.90
11424;BMP180;5768;51.476;7.210;2023-04-01T16:59:52;98700.00;;;13.90
11424;BMP180;5768;51.476;7.210;2023-04-01T17:05:03;98719.00;;;13.90
11424;BMP180;5768;51.476;7.210;2023-04-01T17:10:28;98715.00;;;13.90
11424;BMP180;5768;51.476;7.210;2023-04-01T17:15:40;98732.00;;;13.90
11424;BMP180;5768;51.476;7.210;2023-04-01T17:20:50;98738.00;;;13.80
11424;BMP180;5768;51.476;7.210;2023-04-01T17:26:20;98750.00;;;13.70
11424;BMP180;5768;51.476;7.210;2023-04-01T17:31:40;98747.00;;;13.70
11424;BMP180;5768;51.476;7.210;2023-04-01T17:37:00;98755.00;;;13.70
11424;BMP180;5768;51.476;7.210;2023-04-01T17:42:14;98761.00;;;13.70
11424;BMP180;5768;51.476;7.210;2023-04-01T17:47:41;98772.00;;;13.70
11424;BMP180;5768;51.476;7.210;2023-04-01T17:52:52;98799.00;;;13.70
11424;BMP180;5768;51.476;7.210;2023-04-01T17:58:04;98799.00;;;13.70
11424;BMP180;5768;51.476;7.210;2023-04-01T18:03:24;98795.00;;;13.80
11424;BMP180;5768;51.476;7.210;2023-04-01T18:08:45;98815.00;;;13.80
11424;BMP180;5768;51.476;7.210;2023-04-01T18:14:30;98817.00;;;13.70
11424;BMP180;5768;51.476;7.210;2023-04-01T18:19:43;98819.00;;;13.70
11424;BMP180;5768;51.476;7.210;2023-04-01T18:24:58;98830.00;;;13.60
11424;BMP180;5768;51.476;7.210;2023-04-01T18:30:11;98848.00;;;13.60
11424;BMP180;5768;51.476;7.210;2023-04-01T18:35:22;98851.00;;;13.60
11424;BMP180;5768;51.476;7.210;2023-04-01T18:40:34;98850.00;;;13.60
11424;BMP180;5768;51.476;7.210;2023-04-01T18:45:46;98859.00;;;13.50
11424;BMP180;5768;51.476;7.210;2023-04-01T18:50:56;98872.00;;;13.50
11424;BMP180;5768;51.476;7.210;2023-04-01T18:56:03;98878.00;;;13.50
11424;BMP180;5768;51.476;7.210;2023-04-01T19:01:26;98879.00;;;13.50
11424;BMP180;5768;51.476;7.210;2023-04-01T19:06:35;98887.00;;;13.60
11424;BMP180;5768;51.476;7.210;2023-04-01T19:11:50;98912.00;;;13.60
11424;BMP180;5768;51.476;7.210;2023-04-01T19:17:03;98908.00;;;13.70
11424;BMP180;5768;51.476;7.210;2023-04-01T19:22:34;98911.00;;;13.80
11424;BMP180;5768;51.476;7.210;2023-04-01T19:27:48;98926.00;;;13.90
11424;BMP180;5768;51.476;7.210;2023-04-01T19:33:01;98937.00;;;13.90
11424;BMP180;5768;51.476;7.210;2023-04-01T19:38:16;98939.00;;;13.80
11424;BMP180;5768;51.476;7.210;2023-04-01T19:43:42;98949.00;;;13.70
11424;BMP180;5768;51.476;7.210;2023-04-01T19:48:56;98952.00;;;13.70
11424;BMP180;5768;51.476;7.210;2023-04-01T19:54:10;98968.00;;;13.80
11424;BMP180;5768;51.476;7.210;2023-04-01T19:59:23;98982.00;;;13.70
11424;BMP180;5768;51.476;7.210;2023-04-01T20:04:35;98996.00;;;13.70
11424;BMP180;5768;51.476;7.210;2023-04-01T20:09:53;98994.00;;;13.70
11424;BMP180;5768;51.476;7.210;2023-04-01T20:15:02;99020.00;;;13.60
11424;BMP180;5768;51.476;7.210;2023-04-01T20:20:19;99028.00;;;13.50
11424;BMP180;5768;51.476;7.210;2023-04-01T20:25:26;99040.00;;;13.50
11424;BMP180;5768;51.476;7.210;2023-04-01T20:31:08;99048.00;;;13.50
11424;BMP180;5768;51.476;7.210;2023-04-01T20:36:27;99049.00;;;13.40
11424;BMP180;5768;51.476;7.210;2023-04-01T20:41:42;99070.00;;;13.30
11424;BMP180;5768;51.476;7.210;2023-04-01T20:47:00;99071.00;;;13.20
11424;BMP180;5768;51.476;7.210;2023-04-01T20:52:23;99078.00;;;13.20
11424;BMP180;5768;51.476;7.210;2023-04-01T20:57:34;99095.00;;;13.20
11424;BMP180;5768;51.476;7.210;2023-04-01T21:02:54;99112.00;;;13.20
11424;BMP180;5768;51.476;7.210;2023-04-01T21:08:06;99107.00;;;13.20
11424;BMP180;5768;51.476;7.210;2023-04-01T21:13:21;99121.00;;;13.10
11424;BMP180;5768;51.476;7.210;2023-04-01T21:18:40;99143.00;;;13.00
11424;BMP180;5768;51.476;7.210;2023-04-01T21:24:04;99154.00;;;12.90
11424;BMP180;5768;51.476;7.210;2023-04-01T21:29:38;99156.00;;;12.90
11424;BMP180;5768;51.476;7.210;2023-04-01T21:34:52;99176.00;;;12.90
11424;BMP180;5768;51.476;7.210;2023-04-01T21:46:00;99213.00;;;12.70
11424;BMP180;5768;51.476;7.210;2023-04-01T21:51:33;99220.00;;;12.60
11424;BMP180;5768;51.476;7.210;2023-04-01T21:57:21;99232.00;;;12.60
11424;BMP180;5768;51.476;7.210;2023-04-01T22:03:15;99251.00;;;12.50
11424;BMP180;5768;51.476;7.210;2023-04-01T22:08:44;99258.00;;;12.40
11424;BMP180;5768;51.476;7.210;2023-04-01T22:13:53;99272.00;;;12.40
11424;BMP180;5768;51.476;7.210;2023-04-01T22:19:04;99284.00;;;12.40
11424;BMP180;5768;51.476;7.210;2023-04-01T22:24:13;99295.00;;;12.30
11424;BMP180;5768;51.476;7.210;2023-04-01T22:29:24;99307.00;;;12.30
11424;BMP180;5768;51.476;7.210;2023-04-01T22:34:41;99327.00;;;12.30
11424;BMP180;5768;51.476;7.210;2023-04-01T22:40:14;99331.00;;;12.20
11424;BMP180;5768;51.476;7.210;2023-04-01T22:45:48;99344.00;;;12.10
11424;BMP180;5768;51.476;7.210;2023-04-01T22:51:01;99353.00;;;12.00
11424;BMP180;5768;51.476;7.210;2023-04-01T22:56:15;99360.00;;;12.00
11424;BMP180;5768;51.476;7.210;2023-04-01T23:01:24;99372.00;;;12.00
11424;BMP180;5768;51.476;7.210;2023-04-01T23:06:31;99391.00;;;12.00
11424;BMP180;5768;51.476;7.210;2023-04-01T23:11:44;99402.00;;;12.00
11424;BMP180;5768;51.476;7.210;2023-04-01T23:16:57;99404.00;;;12.00
11424;BMP180;5768;51.476;7.210;2023-04-01T23:22:09;99413.00;;;12.00
11424;BMP180;5768;51.476;7.210;2023-04-01T23:27:22;99425.00;;;11.90
11424;BMP180;5768;51.476;7.210;2023-04-01T23:32:27;99438.00;;;11.90
11424;BMP180;5768;51.476;7.210;2023-04-01T23:37:29;99452.00;;;11.80
11424;BMP180;5768;51.476;7.210;2023-04-01T23:42:39;99456.00;;;11.80
11424;BMP180;5768;51.476;7.210;2023-04-01T23:47:45;99473.00;;;11.70
11424;BMP180;5768;51.476;7.210;2023-04-01T23:52:57;99477.00;;;11.70
11424;BMP180;5768;51.476;7.210;2023-04-01T23:58:21;99490.00;;;11.60
